Time;durP1;ratioP1;P1;durP2;ratioP2;P2;SDS_P1;SDS_P2;PMS_P1;PMS_P2;Temp;Humidity;BMP_temperature;BMP_pressure;BME280_temperature;BME280_humidity;BME280_pressure;Samples;Min_cycle;Max_cycle;Signal;HPM_P1;HPM_P2
2022/10/11 00:00:36;;;;;;;12.00;1.95;;;6.20;99.90;;;;;;5116067;27;20036;-60
2022/10/11 00:03:06;;;;;;;10.70;1.80;;;6.20;99.90;;;;;;5133197;27;20042;-60
2022/10/11 00:05:36;;;;;;;8.43;2.15;;;6.20;99.90;;;;;;5129750;27;20054;-60
2022/10/11 00:08:04;;;;;;;15.38;2.40;;;6.20;99.90;;;;;;5130353;27;20395;-60
2022/10/11 00:10:35;;;;;;;8.45;2.00;;;6.20;99.90;;;;;;5132998;27;20126;-61
2022/10/11 00:13:02;;;;;;;7.60;2.40;;;6.10;99.90;;;;;;5133486;27;20051;-60
2022/10/11 00:15:30;;;;;;;8.73;2.13;;;6.20;99.90;;;;;;5130103;27;20394;-60
2022/10/11 00:17:56;;;;;;;12.70;2.25;;;6.20;99.90;;;;;;5130581;27;20046;-60
2022/10/11 00:20:23;;;;;;;16.80;4.03;;;6.20;99.90;;;;;;5132471;27;20559;-61
2022/10/11 00:22:49;;;;;;;22.38;6.03;;;6.20;99.90;;;;;;5126927;27;20502;-60
2022/10/11 00:25:19;;;;;;;17.92;7.10;;;6.20;99.90;;;;;;5133742;27;20040;-60
2022/10/11 00:27:46;;;;;;;22.48;8.80;;;6.20;99.90;;;;;;5133584;27;20448;-61
2022/10/11 00:30:16;;;;;;;21.95;7.50;;;6.20;99.90;;;;;;5115412;27;20058;-60
2022/10/11 00:32:55;;;;;;;20.02;8.88;;;6.20;99.90;;;;;;5133375;27;20043;-61
2022/10/11 00:35:25;;;;;;;14.98;8.05;;;6.20;99.90;;;;;;5132196;27;20035;-60
2022/10/11 00:37:56;;;;;;;20.45;8.35;;;6.20;99.90;;;;;;5114909;27;20047;-60
2022/10/11 00:40:24;;;;;;;16.27;7.20;;;6.20;99.90;;;;;;5132128;27;20039;-60
2022/10/11 00:42:51;;;;;;;18.92;7.07;;;6.20;99.90;;;;;;5132381;27;20410;-60
2022/10/11 00:45:29;;;;;;;21.17;6.72;;;6.10;99.90;;;;;;5132029;27;20051;-61
2022/10/11 00:48:02;;;;;;;16.60;6.15;;;6.10;99.90;;;;;;5131156;27;20042;-60
2022/10/11 00:50:32;;;;;;;19.95;6.32;;;6.10;99.90;;;;;;5132270;27;20043;-60
2022/10/11 00:53:06;;;;;;;15.00;6.20;;;6.10;99.90;;;;;;5132041;27;20227;-61
2022/10/11 00:55:38;;;;;;;15.02;5.85;;;6.10;99.90;;;;;;5131977;27;20072;-60
2022/10/11 00:58:07;;;;;;;17.25;5.97;;;6.10;99.90;;;;;;5127030;27;20457;-60
2022/10/11 01:00:34;;;;;;;14.43;5.43;;;6.10;99.90;;;;;;5126876;27;20554;-61
2022/10/11 01:03:05;;;;;;;11.65;4.53;;;6.10;99.90;;;;;;5131147;27;20043;-60
2022/10/11 01:05:34;;;;;;;16.50;5.80;;;6.10;99.90;;;;;;5131753;27;20051;-60
2022/10/11 01:08:07;;;;;;;12.80;5.07;;;6.00;99.90;;;;;;5127968;27;20503;-60
2022/10/11 01:10:36;;;;;;;14.55;4.82;;;6.00;99.90;;;;;;5128455;27;20376;-60
2022/10/11 01:13:21;;;;;;;15.98;5.80;;;6.00;99.90;;;;;;5128683;27;20046;-60
2022/10/11 01:15:56;;;;;;;14.05;4.28;;;6.10;99.90;;;;;;5131165;27;20568;-60
2022/10/11 01:18:47;;;;;;;17.80;3.70;;;6.10;99.90;;;;;;5132229;27;20398;-60
2022/10/11 01:21:43;;;;;;;17.65;4.13;;;6.20;99.90;;;;;;5133025;27;20049;-60
2022/10/11 01:24:17;;;;;;;14.43;3.42;;;6.20;99.90;;;;;;5132271;27;20043;-60
2022/10/11 01:27:24;;;;;;;15.85;3.50;;;6.30;99.90;;;;;;5131182;27;20038;-60
2022/10/11 01:30:17;;;;;;;10.05;2.80;;;6.30;99.90;;;;;;5114249;27;20051;-60
2022/10/11 01:33:26;;;;;;;12.98;2.95;;;6.30;99.90;;;;;;5131249;27;20088;-60
2022/10/11 01:36:06;;;;;;;14.27;3.17;;;6.20;99.90;;;;;;5114209;28;20035;-60
2022/10/11 01:38:49;;;;;;;10.80;2.80;;;6.20;99.90;;;;;;5125354;27;20031;-60
2022/10/11 01:41:24;;;;;;;9.98;2.83;;;6.20;99.90;;;;;;5131665;27;20035;-60
2022/10/11 01:43:54;;;;;;;9.07;2.88;;;6.20;99.90;;;;;;5132587;27;20487;-60
2022/10/11 01:46:20;;;;;;;187.88;15.50;;;6.20;99.90;;;;;;5127657;28;20509;-60
2022/10/11 01:48:48;;;;;;;16.15;2.50;;;6.10;99.90;;;;;;5132242;28;20133;-60
2022/10/11 01:51:16;;;;;;;16.45;4.28;;;6.10;99.90;;;;;;5129924;28;20039;-60
2022/10/11 01:54:11;;;;;;;16.67;3.35;;;6.10;99.90;;;;;;5114945;28;20035;-60
2022/10/11 01:56:44;;;;;;;10.20;3.10;;;6.10;99.90;;;;;;5132685;27;20035;-60
2022/10/11 01:59:35;;;;;;;20.75;3.92;;;6.10;99.90;;;;;;5131213;28;20166;-60
2022/10/11 02:02:34;;;;;;;11.35;2.40;;;6.10;99.90;;;;;;5132556;27;20072;-60
2022/10/11 02:05:18;;;;;;;13.90;2.85;;;6.00;99.90;;;;;;5131326;28;20407;-60
2022/10/11 02:07:58;;;;;;;10.35;3.05;;;6.00;99.90;;;;;;5127941;28;20038;-60
2022/10/11 02:10:33;;;;;;;;;;;6.00;99.90;;;;;;5131672;28;20043;-60
2022/10/11 02:13:07;;;;;;;11.13;2.83;;;6.00;99.90;;;;;;5130881;28;19926;-60
2022/10/11 02:15:36;;;;;;;14.52;2.78;;;6.00;99.90;;;;;;5113913;28;20558;-60
2022/10/11 02:18:10;;;;;;;15.45;3.30;;;6.00;99.90;;;;;;5128662;28;20039;-60
2022/10/11 02:20:39;;;;;;;10.10;2.92;;;6.00;99.90;;;;;;5131226;28;20035;-60
2022/10/11 02:23:20;;;;;;;13.98;2.42;;;6.00;99.90;;;;;;5132354;27;20043;-60
2022/10/11 02:25:46;;;;;;;13.52;2.88;;;6.00;99.90;;;;;;5131164;28;20398;-60
2022/10/11 02:28:27;;;;;;;10.13;3.40;;;6.00;99.90;;;;;;5130742;28;20200;-60
2022/10/11 02:30:54;;;;;;;12.48;3.50;;;6.00;99.90;;;;;;5130888;28;20530;-60
2022/10/11 02:33:25;;;;;;;15.38;3.10;;;6.00;99.90;;;;;;5130938;28;20047;-60
2022/10/11 02:35:58;;;;;;;12.38;2.42;;;6.00;99.90;;;;;;5130884;27;20123;-61
2022/10/11 02:38:36;;;;;;;10.43;2.60;;;5.90;99.90;;;;;;5134810;27;20119;-60
2022/10/11 02:41:36;;;;;;;7.53;2.65;;;5.90;99.90;;;;;;5117842;27;20100;-61
2022/10/11 02:44:08;;;;;;;16.55;3.88;;;5.90;99.90;;;;;;5112473;27;20057;-61
2022/10/11 02:46:36;;;;;;;13.73;3.17;;;5.90;99.90;;;;;;5132002;27;20039;-60
2022/10/11 02:49:02;;;;;;;14.02;6.57;;;5.90;99.90;;;;;;5134733;27;20027;-60
2022/10/11 02:51:32;;;;;;;20.38;6.80;;;6.00;99.90;;;;;;5134599;27;20062;-60
2022/10/11 02:53:57;;;;;;;15.23;6.65;;;5.90;99.90;;;;;;5134402;27;20047;-60
2022/10/11 02:56:23;;;;;;;12.50;5.93;;;6.00;99.90;;;;;;5134130;27;20039;-60
2022/10/11 02:58:49;;;;;;;17.80;5.65;;;5.90;99.90;;;;;;5135450;27;20070;-61
2022/10/11 03:01:15;;;;;;;19.60;6.15;;;5.90;99.90;;;;;;5134146;27;20035;-60
2022/10/11 03:03:41;;;;;;;26.05;7.40;;;5.90;99.90;;;;;;5135689;27;20035;-60
2022/10/11 03:06:07;;;;;;;263.45;19.48;;;5.80;99.90;;;;;;5134150;27;20043;-60
2022/10/11 03:08:33;;;;;;;33.47;6.85;;;5.80;99.90;;;;;;5134005;27;20047;-60
2022/10/11 03:10:58;;;;;;;115.40;12.18;;;5.80;99.90;;;;;;5134081;27;20067;-61
2022/10/11 03:13:24;;;;;;;261.55;17.63;;;5.80;99.90;;;;;;5133793;27;20043;-60
2022/10/11 03:15:51;;;;;;;31.52;6.10;;;5.70;99.90;;;;;;5133571;27;20039;-61
2022/10/11 03:18:17;;;;;;;16.33;4.78;;;5.70;99.90;;;;;;5132459;27;20150;-61
2022/10/11 03:20:43;;;;;;;8.52;3.97;;;5.70;99.90;;;;;;5134006;27;20429;-61
2022/10/11 03:23:12;;;;;;;8.60;3.50;;;5.70;99.90;;;;;;5134213;27;20078;-60
2022/10/11 03:25:38;;;;;;;12.20;4.15;;;5.70;99.90;;;;;;5133894;27;20271;-61
2022/10/11 03:28:04;;;;;;;9.30;2.63;;;5.70;99.90;;;;;;5133525;27;20096;-61
2022/10/11 03:30:30;;;;;;;15.73;2.90;;;5.70;99.90;;;;;;5133429;27;20119;-61
2022/10/11 03:32:56;;;;;;;10.07;2.65;;;5.70;99.90;;;;;;5116334;27;20047;-61
2022/10/11 03:35:22;;;;;;;8.82;2.17;;;5.70;99.90;;;;;;5133585;27;20560;-61
2022/10/11 03:37:48;;;;;;;10.50;2.20;;;5.60;99.90;;;;;;5133637;27;20067;-61
2022/10/11 03:40:14;;;;;;;11.57;2.72;;;5.70;99.90;;;;;;5133732;27;20399;-60
2022/10/11 03:42:40;;;;;;;8.10;2.00;;;5.70;99.90;;;;;;5133331;27;20051;-61
2022/10/11 03:45:07;;;;;;;11.20;2.00;;;5.70;99.90;;;;;;5133419;27;20043;-61
2022/10/11 03:47:37;;;;;;;9.15;2.40;;;5.70;99.90;;;;;;5130515;27;20043;-60
2022/10/11 03:50:05;;;;;;;9.98;2.35;;;5.70;99.90;;;;;;5133236;27;20050;-61
2022/10/11 03:52:31;;;;;;;17.25;4.13;;;5.70;99.90;;;;;;5133089;27;20043;-61
2022/10/11 03:54:57;;;;;;;16.35;2.90;;;5.70;99.90;;;;;;5133232;27;20050;-60
2022/10/11 03:57:23;;;;;;;9.50;2.28;;;5.70;99.90;;;;;;5134319;27;20031;-61
2022/10/11 03:59:48;;;;;;;13.77;2.53;;;5.70;99.90;;;;;;5133088;27;20478;-61
2022/10/11 04:02:15;;;;;;;15.50;2.03;;;5.70;99.90;;;;;;5134497;27;20051;-61
2022/10/11 04:04:41;;;;;;;8.57;1.90;;;5.70;99.90;;;;;;5116044;27;20150;-61
2022/10/11 04:07:07;;;;;;;14.15;2.22;;;5.70;99.90;;;;;;5134060;27;20503;-61
2022/10/11 04:09:33;;;;;;;9.63;1.67;;;5.60;99.90;;;;;;5116128;27;20448;-61
2022/10/11 04:11:58;;;;;;;10.25;1.92;;;5.60;99.90;;;;;;5132781;27;20054;-61
2022/10/11 04:14:25;;;;;;;6.00;1.92;;;5.60;99.90;;;;;;5133062;27;20420;-61
2022/10/11 04:16:50;;;;;;;8.77;2.25;;;5.70;99.90;;;;;;5131576;27;20114;-61
2022/10/11 04:19:16;;;;;;;9.60;2.45;;;5.70;99.90;;;;;;5134163;27;20118;-60
2022/10/11 04:21:42;;;;;;;11.25;2.55;;;5.70;99.90;;;;;;5132896;27;20043;-60
2022/10/11 04:24:10;;;;;;;17.77;2.60;;;5.80;99.90;;;;;;5115453;27;20096;-61
2022/10/11 04:26:36;;;;;;;10.18;2.10;;;5.80;99.90;;;;;;5133656;27;20043;-61
2022/10/11 04:29:03;;;;;;;11.48;1.90;;;5.80;99.90;;;;;;5132329;27;20513;-61
2022/10/11 04:31:29;;;;;;;13.57;1.95;;;5.80;99.90;;;;;;5132381;27;20130;-61
2022/10/11 04:33:56;;;;;;;13.10;2.58;;;5.80;99.90;;;;;;5132457;27;20074;-61
2022/10/11 04:36:22;;;;;;;13.25;2.28;;;5.80;99.90;;;;;;5132302;27;20043;-61
2022/10/11 04:38:48;;;;;;;8.05;2.72;;;5.80;99.90;;;;;;5132440;27;20114;-61
2022/10/11 04:41:15;;;;;;;13.15;2.50;;;5.90;99.90;;;;;;5133509;27;20114;-60
2022/10/11 04:43:41;;;;;;;8.40;1.95;;;5.90;99.90;;;;;;5132309;27;20043;-61
2022/10/11 04:46:08;;;;;;;9.32;2.35;;;5.90;99.90;;;;;;5129801;27;20070;-61
2022/10/11 04:48:34;;;;;;;11.90;2.15;;;5.90;99.90;;;;;;5132097;27;20039;-61
2022/10/11 04:50:59;;;;;;;14.55;2.05;;;6.00;99.90;;;;;;5132212;27;20043;-61
2022/10/11 04:53:25;;;;;;;13.38;2.47;;;6.00;99.90;;;;;;5133761;27;20095;-61
2022/10/11 04:56:03;;;;;;;10.88;2.38;;;6.00;99.90;;;;;;5133214;27;20042;-61
2022/10/11 04:58:31;;;;;;;11.52;2.13;;;6.10;99.90;;;;;;5131903;27;20047;-61
2022/10/11 05:00:57;;;;;;;9.70;2.28;;;6.10;99.90;;;;;;5114620;27;20031;-61
2022/10/11 05:03:23;;;;;;;12.57;2.50;;;6.10;99.90;;;;;;5131973;27;20557;-61
2022/10/11 05:05:50;;;;;;;9.48;2.63;;;6.20;99.90;;;;;;5114747;27;20080;-61
2022/10/11 05:08:17;;;;;;;9.00;2.58;;;6.30;99.90;;;;;;5132015;27;20372;-61
2022/10/11 05:10:56;;;;;;;16.45;3.35;;;6.30;99.90;;;;;;5114586;27;20047;-61
2022/10/11 05:13:22;;;;;;;5.38;2.08;;;6.30;99.90;;;;;;5133085;27;20279;-61
2022/10/11 05:15:48;;;;;;;16.58;2.50;;;6.30;99.90;;;;;;5133150;27;20110;-61
2022/10/11 05:18:14;;;;;;;14.05;2.30;;;6.30;99.90;;;;;;5129398;27;20471;-61
2022/10/11 05:20:40;;;;;;;13.07;2.47;;;6.30;99.90;;;;;;5132809;27;20150;-61
2022/10/11 05:23:07;;;;;;;17.33;3.03;;;6.30;99.90;;;;;;5132853;27;20131;-61
2022/10/11 05:25:33;;;;;;;8.32;2.25;;;6.30;99.90;;;;;;5131913;27;20097;-61
2022/10/11 05:27:59;;;;;;;8.02;3.15;;;6.40;99.90;;;;;;5131606;27;20043;-61
2022/10/11 05:30:25;;;;;;;12.77;2.10;;;6.40;99.90;;;;;;5131255;27;20108;-61
2022/10/11 05:32:51;;;;;;;9.50;2.45;;;6.40;99.90;;;;;;5132764;27;20051;-61
2022/10/11 05:35:16;;;;;;;9.60;2.47;;;6.30;99.90;;;;;;5131456;27;20035;-61
2022/10/11 05:37:42;;;;;;;7.65;2.38;;;6.30;99.90;;;;;;5131389;27;20133;-61
2022/10/11 05:40:09;;;;;;;12.18;2.20;;;6.30;99.90;;;;;;5131538;27;20032;-61
2022/10/11 05:42:36;;;;;;;10.73;2.42;;;6.30;99.90;;;;;;5132903;27;20100;-61
2022/10/11 05:45:04;;;;;;;10.98;2.10;;;6.30;99.90;;;;;;5131799;28;20392;-61
2022/10/11 05:47:30;;;;;;;12.32;3.10;;;6.30;99.90;;;;;;5129224;28;20062;-61
2022/10/11 05:49:55;;;;;;;12.38;2.60;;;6.20;99.90;;;;;;5132572;27;20031;-61
2022/10/11 05:52:21;;;;;;;10.05;2.70;;;6.20;99.90;;;;;;5131237;28;20424;-61
2022/10/11 05:54:47;;;;;;;18.40;2.55;;;6.20;99.90;;;;;;5131225;28;20039;-61
2022/10/11 05:57:13;;;;;;;11.15;2.67;;;6.30;99.90;;;;;;5132693;27;20045;-61
2022/10/11 05:59:39;;;;;;;10.63;2.35;;;6.20;99.90;;;;;;5114188;28;20431;-61
2022/10/11 06:02:06;;;;;;;12.07;2.22;;;6.30;99.90;;;;;;5132426;27;20068;-61
2022/10/11 06:04:35;;;;;;;12.25;2.35;;;6.30;99.90;;;;;;5131209;28;20285;-61
2022/10/11 06:07:02;;;;;;;21.52;2.88;;;6.30;99.90;;;;;;5132528;27;20471;-61
2022/10/11 06:09:29;;;;;;;13.52;2.58;;;6.40;99.90;;;;;;5132379;27;20051;-61
2022/10/11 06:11:55;;;;;;;9.48;2.70;;;6.40;99.90;;;;;;5135581;27;20039;-61
2022/10/11 06:14:21;;;;;;;15.88;3.55;;;6.50;99.90;;;;;;5135478;27;20480;-61
2022/10/11 06:16:47;;;;;;;15.18;4.57;;;6.50;99.90;;;;;;5132974;27;20130;-61
2022/10/11 06:19:13;;;;;;;12.70;2.33;;;6.50;99.90;;;;;;5118179;27;20399;-61
2022/10/11 06:21:38;;;;;;;18.88;3.00;;;6.60;99.90;;;;;;5136419;27;20456;-61
2022/10/11 06:24:05;;;;;;;10.77;2.38;;;6.60;99.90;;;;;;5135233;27;20035;-61
2022/10/11 06:26:31;;;;;;;14.82;2.65;;;6.60;99.90;;;;;;5135178;27;20050;-61
2022/10/11 06:28:57;;;;;;;11.75;2.80;;;6.70;99.90;;;;;;5134729;27;20138;-61
2022/10/11 06:31:24;;;;;;;17.00;2.70;;;6.80;99.90;;;;;;5130119;27;20080;-61
2022/10/11 06:33:50;;;;;;;13.43;3.17;;;6.90;99.90;;;;;;5135844;27;20529;-61
2022/10/11 06:36:16;;;;;;;14.45;3.33;;;6.90;99.90;;;;;;5136025;27;20088;-61
2022/10/11 06:38:43;;;;;;;11.25;3.85;;;7.00;99.90;;;;;;5135825;27;20050;-61
2022/10/11 06:41:19;;;;;;;15.52;3.05;;;7.10;99.90;;;;;;5135979;27;20043;-61
2022/10/11 06:43:45;;;;;;;12.52;3.13;;;7.20;99.90;;;;;;5134608;27;20039;-61
2022/10/11 06:46:11;;;;;;;17.20;3.33;;;7.20;99.90;;;;;;5131714;27;20035;-61
2022/10/11 06:48:42;;;;;;;14.68;3.92;;;7.30;99.90;;;;;;5117603;27;20415;-61
2022/10/11 06:51:10;;;;;;;14.85;2.97;;;7.30;99.90;;;;;;5135985;27;20035;-61
2022/10/11 06:53:36;;;;;;;14.75;3.17;;;7.40;99.90;;;;;;5134448;27;19930;-61
2022/10/11 06:56:06;;;;;;;13.55;2.80;;;7.50;99.90;;;;;;5117600;27;20038;-61
2022/10/11 06:58:33;;;;;;;;;;;7.50;99.90;;;;;;5134993;27;20039;-61
2022/10/11 07:01:00;;;;;;;10.82;3.05;;;7.60;99.90;;;;;;5134537;27;19919;-61
2022/10/11 07:03:27;;;;;;;12.18;3.45;;;7.60;99.90;;;;;;5128882;27;20387;-61
2022/10/11 07:05:54;;;;;;;11.48;3.38;;;7.70;99.90;;;;;;5134151;27;20043;-61
2022/10/11 07:08:19;;;;;;;10.80;3.00;;;7.70;99.90;;;;;;5134089;27;20495;-62
2022/10/11 07:10:46;;;;;;;10.05;3.05;;;7.80;99.90;;;;;;5117033;27;20074;-61
2022/10/11 07:13:11;;;;;;;11.32;3.70;;;7.80;99.90;;;;;;5133942;27;20395;-61
2022/10/11 07:15:39;;;;;;;13.05;3.45;;;7.90;99.90;;;;;;5135199;27;20049;-61
2022/10/11 07:18:06;;;;;;;13.10;3.15;;;8.00;99.90;;;;;;5132640;27;20482;-61
2022/10/11 07:20:32;;;;;;;12.10;2.83;;;8.10;99.90;;;;;;5133911;27;20092;-61
2022/10/11 07:22:57;;;;;;;16.65;3.60;;;8.10;99.90;;;;;;5134128;27;20038;-61
2022/10/11 07:25:23;;;;;;;11.25;3.45;;;8.20;99.90;;;;;;5135063;27;20050;-62
2022/10/11 07:27:49;;;;;;;11.88;3.13;;;8.30;99.90;;;;;;5134990;27;20071;-62
2022/10/11 07:30:15;;;;;;;12.90;3.45;;;8.30;99.90;;;;;;5133306;27;20096;-62
2022/10/11 07:32:41;;;;;;;12.68;2.72;;;8.40;99.90;;;;;;5133465;27;20495;-61
2022/10/11 07:35:07;;;;;;;19.23;3.47;;;8.50;99.90;;;;;;5133803;27;20042;-61
2022/10/11 07:37:33;;;;;;;12.02;3.42;;;8.70;99.90;;;;;;5133808;27;20092;-61
2022/10/11 07:39:59;;;;;;;12.05;2.85;;;8.80;99.90;;;;;;5133486;27;20118;-61
2022/10/11 07:42:25;;;;;;;12.68;3.35;;;8.90;99.90;;;;;;5133377;27;20050;-61
2022/10/11 07:44:51;;;;;;;17.17;4.18;;;9.10;99.90;;;;;;5133565;27;20058;-61
2022/10/11 07:47:17;;;;;;;12.70;3.08;;;9.30;99.90;;;;;;5132434;27;20168;-61
2022/10/11 07:49:42;;;;;;;12.15;3.25;;;9.50;99.90;;;;;;5133612;27;20047;-61
2022/10/11 07:52:08;;;;;;;13.20;4.63;;;9.70;99.90;;;;;;5133109;27;20046;-62
2022/10/11 07:54:34;;;;;;;9.35;3.17;;;9.90;99.90;;;;;;5133021;27;20039;-62
2022/10/11 07:57:00;;;;;;;11.75;2.92;;;10.10;99.90;;;;;;5135284;27;20031;-62
2022/10/11 07:59:26;;;;;;;11.88;3.80;;;10.30;99.90;;;;;;5134748;27;20491;-62
2022/10/11 08:01:51;;;;;;;10.60;2.25;;;10.60;99.90;;;;;;5133029;27;20399;-62
2022/10/11 08:04:17;;;;;;;9.57;2.60;;;10.90;99.90;;;;;;5134283;27;20043;-62
2022/10/11 08:06:43;;;;;;;11.05;2.55;;;11.30;99.90;;;;;;5132988;27;20046;-62
2022/10/11 08:09:09;;;;;;;10.43;2.70;;;11.70;99.90;;;;;;5134247;27;20104;-62
2022/10/11 08:11:36;;;;;;;9.48;2.00;;;12.10;99.90;;;;;;5133032;27;20036;-62
2022/10/11 08:14:07;;;;;;;13.18;2.55;;;12.50;99.90;;;;;;5115903;27;20031;-62
2022/10/11 08:16:34;;;;;;;11.10;2.33;;;12.90;99.90;;;;;;5131488;27;20046;-62
2022/10/11 08:19:01;;;;;;;15.05;3.00;;;13.30;99.90;;;;;;5132940;27;20035;-62
2022/10/11 08:21:28;;;;;;;11.13;2.53;;;13.40;99.90;;;;;;5134398;27;20432;-62
2022/10/11 08:23:54;;;;;;;9.30;2.20;;;13.40;99.90;;;;;;5132842;27;20031;-62
2022/10/11 08:26:20;;;;;;;11.18;2.45;;;13.40;99.90;;;;;;5134598;27;20489;-63
2022/10/11 08:28:46;;;;;;;5.68;2.45;;;13.30;99.90;;;;;;5133157;27;20495;-63
2022/10/11 08:31:14;;;;;;;8.25;2.60;;;13.50;99.90;;;;;;5133316;27;20050;-63
2022/10/11 08:33:40;;;;;;;13.93;3.38;;;14.20;99.90;;;;;;5133326;27;20050;-63
2022/10/11 08:36:06;;;;;;;12.95;2.53;;;15.00;99.90;;;;;;5134674;27;20039;-64
2022/10/11 08:38:34;;;;;;;10.52;2.33;;;15.70;99.90;;;;;;5133447;27;20041;-63
2022/10/11 08:41:01;;;;;;;11.07;2.80;;;16.30;99.90;;;;;;5133165;27;20122;-63
2022/10/11 08:43:45;;;;;;;7.47;2.00;;;17.00;99.90;;;;;;5134418;27;20610;-63
2022/10/11 08:46:13;;;;;;;8.98;1.88;;;17.60;99.90;;;;;;5131152;27;20043;-62
2022/10/11 08:48:47;;;;;;;13.65;2.42;;;18.10;99.90;;;;;;5134347;27;20066;-63
2022/10/11 08:51:45;;;;;;;11.95;3.33;;;18.40;99.90;;;;;;5132959;27;20050;-62
2022/10/11 08:54:41;;;;;;;11.90;2.53;;;18.90;99.90;;;;;;5132978;27;20085;-62
2022/10/11 08:57:17;;;;;;;10.10;2.45;;;19.20;99.90;;;;;;5112207;27;20035;-62
2022/10/11 08:59:45;;;;;;;11.75;2.67;;;19.60;99.90;;;;;;5133081;27;20498;-63
2022/10/11 09:02:22;;;;;;;9.73;2.20;;;19.80;99.90;;;;;;5133112;27;20129;-63
2022/10/11 09:04:50;;;;;;;9.55;2.40;;;19.90;99.90;;;;;;5132658;27;20124;-62
2022/10/11 09:07:26;;;;;;;12.52;2.42;;;20.00;99.90;;;;;;5133024;27;20391;-63
2022/10/11 09:10:13;;;;;;;6.15;2.13;;;19.70;99.90;;;;;;5132665;27;20054;-62
2022/10/11 09:13:12;;;;;;;8.55;2.78;;;19.70;99.90;;;;;;5132426;27;20046;-62
2022/10/11 09:15:56;;;;;;;8.15;2.50;;;20.00;99.90;;;;;;5132479;27;20043;-63
2022/10/11 09:18:49;;;;;;;9.10;2.60;;;20.30;99.90;;;;;;5131591;27;20057;-62
2022/10/11 09:21:29;;;;;;;8.27;2.45;;;20.50;99.90;;;;;;5114801;27;20036;-63
2022/10/11 09:24:29;;;;;;;12.10;2.95;;;20.90;99.90;;;;;;5132198;27;20050;-63
2022/10/11 09:27:20;;;;;;;8.32;1.92;;;21.40;99.90;;;;;;5132223;27;20035;-62
2022/10/11 09:30:03;;;;;;;11.75;2.50;;;21.30;99.90;;;;;;5122508;27;20047;-63
2022/10/11 09:32:44;;;;;;;7.10;2.38;;;20.70;99.90;;;;;;5133378;27;20099;-63
2022/10/11 09:35:17;;;;;;;9.15;2.58;;;20.10;99.90;;;;;;5133428;27;20093;-62
2022/10/11 09:37:48;;;;;;;8.63;2.75;;;19.70;99.90;;;;;;5132497;27;20111;-67
2022/10/11 09:40:51;;;;;;;12.40;2.40;;;19.80;99.90;;;;;;5133699;27;20047;-67
2022/10/11 09:43:17;;;;;;;13.85;2.97;;;20.10;99.90;;;;;;5132075;28;20494;-67
2022/10/11 09:45:45;;;;;;;8.55;2.00;;;20.70;99.90;;;;;;5133041;27;20050;-67
2022/10/11 09:48:27;;;;;;;10.43;2.72;;;21.10;99.90;;;;;;5129818;28;20046;-67
2022/10/11 09:51:01;;;;;;;9.73;2.40;;;21.10;99.90;;;;;;5132234;28;20065;-67
2022/10/11 09:53:58;;;;;;;9.85;2.15;;;21.20;99.90;;;;;;5132960;27;20094;-67
2022/10/11 09:56:26;;;;;;;7.60;1.80;;;21.10;99.90;;;;;;5133350;27;20031;-67
2022/10/11 09:59:30;;;;;;;11.98;2.58;;;21.20;99.90;;;;;;5132295;28;20047;-66
2022/10/11 10:02:12;;;;;;;8.20;2.17;;;21.60;99.90;;;;;;5132034;28;20459;-66
2022/10/11 10:04:54;;;;;;;8.90;2.63;;;22.20;99.90;;;;;;5132890;27;20119;-66
2022/10/11 10:07:20;;;;;;;7.60;1.90;;;22.40;99.90;;;;;;5131686;28;20043;-67
2022/10/11 10:09:47;;;;;;;6.30;1.75;;;22.20;99.90;;;;;;5131645;28;20047;-67
2022/10/11 10:12:20;;;;;;;9.57;1.83;;;22.30;99.90;;;;;;5133162;27;20352;-67
2022/10/11 10:15:02;;;;;;;8.88;2.22;;;22.50;99.90;;;;;;5131809;28;20035;-67
2022/10/11 10:17:28;;;;;;;10.27;2.20;;;23.00;99.90;;;;;;5129854;27;20031;-66
2022/10/11 10:19:55;;;;;;;10.73;2.63;;;22.90;99.70;;;;;;5128638;28;20565;-66
2022/10/11 10:22:32;;;;;;;8.52;1.90;;;22.60;98.90;;;;;;5133236;27;20151;-66
2022/10/11 10:25:00;;;;;;;12.32;2.75;;;21.70;98.80;;;;;;5132796;27;20475;-65
2022/10/11 10:27:29;;;;;;;9.05;2.42;;;20.70;99.90;;;;;;5132083;27;20039;-66
2022/10/11 10:30:14;;;;;;;8.75;1.80;;;20.20;99.90;;;;;;5113919;28;20134;-65
2022/10/11 10:33:03;;;;;;;7.25;1.83;;;19.40;99.90;;;;;;5131614;28;20058;-65
2022/10/11 10:35:37;;;;;;;8.73;1.83;;;19.10;99.90;;;;;;5133050;27;20078;-65
2022/10/11 10:38:09;;;;;;;10.27;1.83;;;18.80;99.90;;;;;;5114312;28;20054;-65
2022/10/11 10:40:46;;;;;;;7.85;2.10;;;19.30;99.90;;;;;;5131481;28;20131;-66
2022/10/11 10:43:34;;;;;;;10.95;2.70;;;19.80;99.90;;;;;;5131928;28;20450;-66
2022/10/11 10:46:28;;;;;;;14.50;2.35;;;20.30;99.90;;;;;;5130215;28;20043;-66
2022/10/11 10:49:03;;;;;;;8.38;1.95;;;20.50;99.90;;;;;;5131443;28;20043;-66
2022/10/11 10:51:39;;;;;;;11.65;2.05;;;21.10;99.80;;;;;;5131495;28;20126;-66
2022/10/11 10:54:33;;;;;;;9.30;2.20;;;21.20;99.00;;;;;;5131423;28;20054;-66
2022/10/11 10:57:03;;;;;;;8.75;2.30;;;20.50;98.70;;;;;;5131771;27;20035;-66
2022/10/11 10:59:47;;;;;;;10.55;2.28;;;19.80;99.80;;;;;;5136514;27;20084;-66
2022/10/11 11:02:22;;;;;;;7.15;1.52;;;19.70;99.90;;;;;;5135492;27;20204;-66
2022/10/11 11:05:36;;;;;;;8.48;1.55;;;19.30;99.70;;;;;;5117836;27;20043;-66
2022/10/11 11:08:11;;;;;;;9.63;1.85;;;19.00;99.50;;;;;;5073583;27;20078;-66
2022/10/11 11:10:56;;;;;;;13.45;2.50;;;18.80;99.30;;;;;;5136183;27;20409;-66
2022/10/11 11:13:34;;;;;;;10.70;1.77;;;18.60;99.90;;;;;;5143241;27;20035;-66
2022/10/11 11:16:06;;;;;;;9.43;1.55;;;18.20;99.90;;;;;;5156659;27;20031;-65
2022/10/11 11:19:12;;;;;;;10.23;2.55;;;17.90;99.90;;;;;;5154597;27;20063;-65
2022/10/11 11:21:53;;;;;;;9.52;1.67;;;17.50;99.90;;;;;;5152427;27;20038;-65
2022/10/11 11:24:37;;;;;;;8.45;1.60;;;17.20;99.90;;;;;;5155705;27;20447;-65
2022/10/11 11:27:15;;;;;;;10.30;2.00;;;17.00;99.90;;;;;;5156545;27;20074;-65
2022/10/11 11:30:03;;;;;;;7.80;1.50;;;16.90;99.90;;;;;;5156401;27;20058;-65
2022/10/11 11:32:43;;;;;;;7.07;1.50;;;17.00;99.90;;;;;;5156981;27;20047;-65
2022/10/11 11:35:33;;;;;;;9.73;2.10;;;17.10;99.90;;;;;;5137896;27;20168;-65
2022/10/11 11:38:09;;;;;;;10.98;2.08;;;17.10;99.90;;;;;;5155018;27;20042;-65
2022/10/11 11:41:10;;;;;;;10.27;1.60;;;17.00;99.90;;;;;;5154842;27;20078;-65
2022/10/11 11:43:47;;;;;;;6.13;2.00;;;17.00;99.90;;;;;;5141899;27;20076;-66
2022/10/11 11:46:23;;;;;;;9.80;2.00;;;17.10;99.90;;;;;;5152738;27;20046;-66
2022/10/11 11:48:51;;;;;;;8.52;1.70;;;16.80;99.90;;;;;;5154408;27;20087;-65
2022/10/11 11:51:41;;;;;;;9.60;1.77;;;16.50;99.90;;;;;;5156200;27;20035;-65
2022/10/11 11:54:27;;;;;;;10.65;3.10;;;16.10;99.90;;;;;;5156228;27;20054;-65
2022/10/11 11:56:58;;;;;;;8.20;2.30;;;15.80;99.90;;;;;;5130003;27;20035;-65
2022/10/11 11:59:43;;;;;;;10.27;2.28;;;15.60;99.90;;;;;;5117064;27;20122;-65
2022/10/11 12:02:30;;;;;;;11.63;5.20;;;15.40;99.90;;;;;;5134040;27;20078;-66
2022/10/11 12:04:56;;;;;;;6.38;1.85;;;15.40;99.90;;;;;;5133736;27;20495;-65
2022/10/11 12:07:26;;;;;;;7.63;1.52;;;15.50;99.90;;;;;;5134864;27;20506;-66
2022/10/11 12:10:13;;;;;;;13.30;2.80;;;15.60;99.90;;;;;;5134422;27;20072;-66
2022/10/11 12:12:39;;;;;;;13.18;2.17;;;15.50;99.90;;;;;;5133536;27;20468;-65
2022/10/11 12:15:08;;;;;;;10.05;2.58;;;15.40;99.90;;;;;;5133427;27;20047;-66
2022/10/11 12:17:56;;;;;;;11.70;3.53;;;15.30;99.90;;;;;;5131569;27;20047;-66
2022/10/11 12:20:37;;;;;;;11.82;4.30;;;15.10;99.90;;;;;;5130053;27;20044;-65
2022/10/11 12:23:29;;;;;;;13.82;3.35;;;14.90;99.90;;;;;;5132900;27;20122;-65
2022/10/11 12:26:33;;;;;;;9.02;2.22;;;14.80;99.90;;;;;;5130534;27;20053;-65
2022/10/11 12:29:17;;;;;;;10.80;3.38;;;14.70;99.90;;;;;;5057302;28;20091;-66
2022/10/11 12:31:45;;;;;;;22.38;12.73;;;14.60;99.90;;;;;;5127945;27;20047;-65
2022/10/11 12:34:29;;;;;;;13.18;4.35;;;14.60;99.90;;;;;;5133513;27;20031;-65
2022/10/11 12:36:56;;;;;;;8.15;1.98;;;14.50;99.90;;;;;;5134353;27;20043;-65
2022/10/11 12:39:21;;;;;;;7.88;1.50;;;14.50;99.90;;;;;;5133296;27;20095;-65
2022/10/11 12:41:50;;;;;;;6.18;1.80;;;14.40;99.90;;;;;;5133004;27;20040;-65
2022/10/11 12:44:27;;;;;;;10.35;1.80;;;14.40;99.90;;;;;;5133042;27;20180;-65
2022/10/11 12:46:53;;;;;;;11.43;2.67;;;14.40;99.90;;;;;;5132096;27;20047;-66
2022/10/11 12:49:41;;;;;;;7.45;1.48;;;14.40;99.90;;;;;;5133027;27;20062;-65
2022/10/11 12:52:28;;;;;;;10.50;1.98;;;14.40;99.90;;;;;;5133194;27;20114;-65
2022/10/11 12:55:02;;;;;;;11.98;1.80;;;14.40;99.90;;;;;;5115574;27;20043;-65
2022/10/11 12:57:37;;;;;;;9.05;1.60;;;14.30;99.90;;;;;;5116071;27;20088;-65
2022/10/11 13:00:22;;;;;;;10.27;1.85;;;14.30;99.90;;;;;;5132893;27;20039;-65
2022/10/11 13:02:48;;;;;;;9.52;1.40;;;14.30;99.90;;;;;;5133034;27;20121;-65
2022/10/11 13:05:47;;;;;;;11.85;2.10;;;14.40;99.90;;;;;;5134253;27;20046;-65
2022/10/11 13:08:21;;;;;;;11.57;1.83;;;14.30;99.90;;;;;;5077493;27;20055;-65
2022/10/11 13:10:47;;;;;;;9.15;1.73;;;14.30;99.90;;;;;;5132524;27;20122;-65
2022/10/11 13:13:23;;;;;;;9.30;1.58;;;14.40;99.90;;;;;;5132593;27;20130;-65